sensor_id;sensor_type;location;lat;lon;timestamp;P1;durP1;ratioP1;P2;durP2;ratioP2
42084;SDS011;27746;52.228;20.890;2023-09-12T00:00:22;17.10;;;13.15;;
42084;SDS011;27746;52.228;20.890;2023-09-12T00:02:49;15.15;;;12.05;;
42084;SDS011;27746;52.228;20.890;2023-09-12T00:05:17;19.25;;;12.52;;
42084;SDS011;27746;52.228;20.890;2023-09-12T00:07:44;20.42;;;12.77;;
42084;SDS011;27746;52.228;20.890;2023-09-12T00:10:11;20.40;;;12.20;;
42084;SDS011;27746;52.228;20.890;2023-09-12T00:12:38;18.05;;;12.27;;
42084;SDS011;27746;52.228;20.890;2023-09-12T00:15:05;19.92;;;14.30;;
42084;SDS011;27746;52.228;20.890;2023-09-12T00:17:32;20.83;;;13.05;;
42084;SDS011;27746;52.228;20.890;2023-09-12T00:19:59;16.70;;;12.73;;
42084;SDS011;27746;52.228;20.890;2023-09-12T00:22:27;19.92;;;12.45;;
42084;SDS011;27746;52.228;20.890;2023-09-12T00:24:54;20.48;;;14.10;;
42084;SDS011;27746;52.228;20.890;2023-09-12T00:27:21;16.48;;;11.70;;
42084;SDS011;27746;52.228;20.890;2023-09-12T00:29:48;17.67;;;12.82;;
42084;SDS011;27746;52.228;20.890;2023-09-12T00:32:14;19.70;;;13.43;;
42084;SDS011;27746;52.228;20.890;2023-09-12T00:34:41;17.60;;;13.02;;
42084;SDS011;27746;52.228;20.890;2023-09-12T00:37:08;19.95;;;15.02;;
42084;SDS011;27746;52.228;20.890;2023-09-12T00:39:36;20.90;;;13.40;;
42084;SDS011;27746;52.228;20.890;2023-09-12T00:42:03;16.75;;;12.40;;
42084;SDS011;27746;52.228;20.890;2023-09-12T00:44:32;19.83;;;13.93;;
42084;SDS011;27746;52.228;20.890;2023-09-12T00:46:59;22.13;;;14.32;;
42084;SDS011;27746;52.228;20.890;2023-09-12T00:49:27;17.25;;;12.25;;
42084;SDS011;27746;52.228;20.890;2023-09-12T00:51:55;18.92;;;14.07;;
42084;SDS011;27746;52.228;20.890;2023-09-12T00:54:23;19.80;;;13.52;;
42084;SDS011;27746;52.228;20.890;2023-09-12T00:56:52;18.13;;;13.00;;
42084;SDS011;27746;52.228;20.890;2023-09-12T00:59:19;15.32;;;12.30;;
42084;SDS011;27746;52.228;20.890;2023-09-12T01:01:47;16.27;;;12.32;;
42084;SDS011;27746;52.228;20.890;2023-09-12T01:04:14;17.90;;;12.82;;
42084;SDS011;27746;52.228;20.890;2023-09-12T01:06:41;21.85;;;13.93;;
42084;SDS011;27746;52.228;20.890;2023-09-12T01:09:08;18.10;;;13.52;;
42084;SDS011;27746;52.228;20.890;2023-09-12T01:11:35;16.90;;;13.30;;
42084;SDS011;27746;52.228;20.890;2023-09-12T01:14:04;20.85;;;13.23;;
42084;SDS011;27746;52.228;20.890;2023-09-12T01:16:31;22.52;;;13.98;;
42084;SDS011;27746;52.228;20.890;2023-09-12T01:18:58;22.38;;;14.48;;
42084;SDS011;27746;52.228;20.890;2023-09-12T01:21:38;24.77;;;14.05;;
42084;SDS011;27746;52.228;20.890;2023-09-12T01:24:28;22.20;;;14.38;;
42084;SDS011;27746;52.228;20.890;2023-09-12T01:27:20;16.92;;;13.23;;
42084;SDS011;27746;52.228;20.890;2023-09-12T01:29:53;17.60;;;12.95;;
42084;SDS011;27746;52.228;20.890;2023-09-12T01:32:22;23.15;;;14.57;;
42084;SDS011;27746;52.228;20.890;2023-09-12T01:34:49;19.52;;;15.25;;
42084;SDS011;27746;52.228;20.890;2023-09-12T01:37:16;21.85;;;14.63;;
42084;SDS011;27746;52.228;20.890;2023-09-12T01:39:43;21.02;;;14.18;;
42084;SDS011;27746;52.228;20.890;2023-09-12T01:42:10;17.48;;;14.07;;
42084;SDS011;27746;52.228;20.890;2023-09-12T01:44:42;26.65;;;15.00;;
42084;SDS011;27746;52.228;20.890;2023-09-12T01:47:10;18.20;;;13.52;;
42084;SDS011;27746;52.228;20.890;2023-09-12T01:49:39;20.77;;;15.75;;
42084;SDS011;27746;52.228;20.890;2023-09-12T01:52:11;21.35;;;15.38;;
42084;SDS011;27746;52.228;20.890;2023-09-12T01:54:38;23.48;;;15.63;;
42084;SDS011;27746;52.228;20.890;2023-09-12T01:57:07;21.70;;;15.52;;
42084;SDS011;27746;52.228;20.890;2023-09-12T01:59:34;23.08;;;15.45;;
42084;SDS011;27746;52.228;20.890;2023-09-12T02:02:03;29.17;;;16.63;;
42084;SDS011;27746;52.228;20.890;2023-09-12T02:04:30;18.27;;;13.77;;
42084;SDS011;27746;52.228;20.890;2023-09-12T02:06:57;22.58;;;15.23;;
42084;SDS011;27746;52.228;20.890;2023-09-12T02:09:24;19.83;;;14.80;;
42084;SDS011;27746;52.228;20.890;2023-09-12T02:11:51;21.10;;;14.43;;
42084;SDS011;27746;52.228;20.890;2023-09-12T02:14:18;21.27;;;13.98;;
42084;SDS011;27746;52.228;20.890;2023-09-12T02:16:44;20.05;;;14.88;;
42084;SDS011;27746;52.228;20.890;2023-09-12T02:19:13;19.10;;;14.55;;
42084;SDS011;27746;52.228;20.890;2023-09-12T02:21:39;19.92;;;14.57;;
42084;SDS011;27746;52.228;20.890;2023-09-12T02:24:07;17.92;;;13.13;;
42084;SDS011;27746;52.228;20.890;2023-09-12T02:26:34;21.48;;;14.15;;
42084;SDS011;27746;52.228;20.890;2023-09-12T02:29:02;23.38;;;15.25;;
42084;SDS011;27746;52.228;20.890;2023-09-12T02:31:30;24.30;;;15.23;;
42084;SDS011;27746;52.228;20.890;2023-09-12T02:33:57;24.67;;;14.82;;
42084;SDS011;27746;52.228;20.890;2023-09-12T02:36:26;21.10;;;14.82;;
42084;SDS011;27746;52.228;20.890;2023-09-12T02:38:54;22.63;;;14.43;;
42084;SDS011;27746;52.228;20.890;2023-09-12T02:41:20;20.90;;;14.88;;
42084;SDS011;27746;52.228;20.890;2023-09-12T02:43:47;20.92;;;15.70;;
42084;SDS011;27746;52.228;20.890;2023-09-12T02:46:14;21.63;;;15.57;;
42084;SDS011;27746;52.228;20.890;2023-09-12T02:48:41;19.55;;;14.80;;
42084;SDS011;27746;52.228;20.890;2023-09-12T02:51:08;21.42;;;14.43;;
42084;SDS011;27746;52.228;20.890;2023-09-12T02:53:36;23.65;;;14.68;;
42084;SDS011;27746;52.228;20.890;2023-09-12T02:56:03;24.60;;;16.05;;
42084;SDS011;27746;52.228;20.890;2023-09-12T02:58:30;18.63;;;14.02;;
42084;SDS011;27746;52.228;20.890;2023-09-12T03:00:57;26.05;;;16.73;;
42084;SDS011;27746;52.228;20.890;2023-09-12T03:03:23;22.95;;;15.63;;
42084;SDS011;27746;52.228;20.890;2023-09-12T03:05:56;19.23;;;15.13;;
42084;SDS011;27746;52.228;20.890;2023-09-12T03:08:24;23.35;;;15.27;;
42084;SDS011;27746;52.228;20.890;2023-09-12T03:10:54;22.95;;;15.82;;
42084;SDS011;27746;52.228;20.890;2023-09-12T03:13:22;26.27;;;16.00;;
42084;SDS011;27746;52.228;20.890;2023-09-12T03:15:50;22.33;;;15.55;;
42084;SDS011;27746;52.228;20.890;2023-09-12T03:18:17;21.33;;;15.80;;
42084;SDS011;27746;52.228;20.890;2023-09-12T03:20:44;21.90;;;15.63;;
42084;SDS011;27746;52.228;20.890;2023-09-12T03:23:11;21.52;;;16.80;;
42084;SDS011;27746;52.228;20.890;2023-09-12T03:25:38;22.38;;;16.05;;
42084;SDS011;27746;52.228;20.890;2023-09-12T03:28:07;24.02;;;16.92;;
42084;SDS011;27746;52.228;20.890;2023-09-12T03:30:34;24.25;;;17.85;;
42084;SDS011;27746;52.228;20.890;2023-09-12T03:33:02;23.90;;;17.40;;
42084;SDS011;27746;52.228;20.890;2023-09-12T03:35:30;24.27;;;18.23;;
42084;SDS011;27746;52.228;20.890;2023-09-12T03:37:58;21.15;;;15.25;;
42084;SDS011;27746;52.228;20.890;2023-09-12T03:40:25;26.45;;;17.52;;
42084;SDS011;27746;52.228;20.890;2023-09-12T03:42:54;26.55;;;18.00;;
42084;SDS011;27746;52.228;20.890;2023-09-12T03:45:22;27.50;;;18.92;;
42084;SDS011;27746;52.228;20.890;2023-09-12T03:47:49;25.45;;;18.67;;
42084;SDS011;27746;52.228;20.890;2023-09-12T03:50:16;25.73;;;17.58;;
42084;SDS011;27746;52.228;20.890;2023-09-12T03:52:42;28.02;;;17.27;;
42084;SDS011;27746;52.228;20.890;2023-09-12T03:55:09;29.23;;;17.73;;
42084;SDS011;27746;52.228;20.890;2023-09-12T03:57:36;29.75;;;18.67;;
42084;SDS011;27746;52.228;20.890;2023-09-12T04:00:03;23.10;;;17.27;;
42084;SDS011;27746;52.228;20.890;2023-09-12T04:02:34;26.17;;;17.95;;
42084;SDS011;27746;52.228;20.890;2023-09-12T04:05:01;21.92;;;15.55;;
42084;SDS011;27746;52.228;20.890;2023-09-12T04:07:28;24.13;;;16.40;;
42084;SDS011;27746;52.228;20.890;2023-09-12T04:09:55;22.20;;;14.75;;
42084;SDS011;27746;52.228;20.890;2023-09-12T04:12:22;20.20;;;16.35;;
42084;SDS011;27746;52.228;20.890;2023-09-12T04:14:49;20.80;;;16.23;;
42084;SDS011;27746;52.228;20.890;2023-09-12T04:17:16;27.75;;;17.23;;
42084;SDS011;27746;52.228;20.890;2023-09-12T04:19:45;25.42;;;16.83;;
42084;SDS011;27746;52.228;20.890;2023-09-12T04:22:11;22.80;;;16.55;;
42084;SDS011;27746;52.228;20.890;2023-09-12T04:24:38;25.08;;;18.00;;
42084;SDS011;27746;52.228;20.890;2023-09-12T04:27:05;27.00;;;16.58;;
42084;SDS011;27746;52.228;20.890;2023-09-12T04:29:32;25.63;;;17.13;;
42084;SDS011;27746;52.228;20.890;2023-09-12T04:32:00;25.60;;;16.27;;
42084;SDS011;27746;52.228;20.890;2023-09-12T04:34:28;35.53;;;19.05;;
42084;SDS011;27746;52.228;20.890;2023-09-12T04:36:56;24.88;;;17.30;;
42084;SDS011;27746;52.228;20.890;2023-09-12T04:39:24;27.45;;;17.33;;
42084;SDS011;27746;52.228;20.890;2023-09-12T04:41:50;25.40;;;18.42;;
42084;SDS011;27746;52.228;20.890;2023-09-12T04:44:17;26.60;;;18.02;;
42084;SDS011;27746;52.228;20.890;2023-09-12T04:46:44;27.77;;;17.42;;
42084;SDS011;27746;52.228;20.890;2023-09-12T04:49:11;25.60;;;18.33;;
42084;SDS011;27746;52.228;20.890;2023-09-12T04:51:38;33.90;;;20.52;;
42084;SDS011;27746;52.228;20.890;2023-09-12T04:54:06;36.58;;;21.23;;
42084;SDS011;27746;52.228;20.890;2023-09-12T04:56:33;26.42;;;20.58;;
42084;SDS011;27746;52.228;20.890;2023-09-12T04:59:00;31.38;;;20.13;;
42084;SDS011;27746;52.228;20.890;2023-09-12T05:01:27;28.23;;;19.40;;
42084;SDS011;27746;52.228;20.890;2023-09-12T05:03:54;32.03;;;19.98;;
42084;SDS011;27746;52.228;20.890;2023-09-12T05:06:21;31.60;;;19.63;;
42084;SDS011;27746;52.228;20.890;2023-09-12T05:08:48;27.50;;;19.77;;
42084;SDS011;27746;52.228;20.890;2023-09-12T05:11:16;28.98;;;19.70;;
42084;SDS011;27746;52.228;20.890;2023-09-12T05:13:43;27.42;;;18.88;;
42084;SDS011;27746;52.228;20.890;2023-09-12T05:16:10;29.63;;;18.55;;
42084;SDS011;27746;52.228;20.890;2023-09-12T05:18:37;28.02;;;19.13;;
42084;SDS011;27746;52.228;20.890;2023-09-12T05:21:03;37.63;;;22.73;;
42084;SDS011;27746;52.228;20.890;2023-09-12T05:23:30;30.95;;;20.98;;
42084;SDS011;27746;52.228;20.890;2023-09-12T05:25:57;31.13;;;19.02;;
42084;SDS011;27746;52.228;20.890;2023-09-12T05:28:27;30.23;;;19.77;;
42084;SDS011;27746;52.228;20.890;2023-09-12T05:30:54;33.53;;;19.15;;
42084;SDS011;27746;52.228;20.890;2023-09-12T05:33:20;32.10;;;19.27;;
42084;SDS011;27746;52.228;20.890;2023-09-12T05:35:48;32.72;;;20.17;;
42084;SDS011;27746;52.228;20.890;2023-09-12T05:38:15;30.27;;;18.75;;
42084;SDS011;27746;52.228;20.890;2023-09-12T05:40:42;33.15;;;20.02;;
42084;SDS011;27746;52.228;20.890;2023-09-12T05:43:09;43.67;;;22.00;;
42084;SDS011;27746;52.228;20.890;2023-09-12T05:45:37;35.55;;;20.00;;
42084;SDS011;27746;52.228;20.890;2023-09-12T05:48:04;40.03;;;20.95;;
42084;SDS011;27746;52.228;20.890;2023-09-12T05:50:31;50.55;;;22.85;;
42084;SDS011;27746;52.228;20.890;2023-09-12T05:52:58;48.00;;;21.42;;
42084;SDS011;27746;52.228;20.890;2023-09-12T05:55:25;36.83;;;20.83;;
42084;SDS011;27746;52.228;20.890;2023-09-12T05:57:52;49.88;;;21.52;;
42084;SDS011;27746;52.228;20.890;2023-09-12T06:00:19;41.40;;;20.05;;
42084;SDS011;27746;52.228;20.890;2023-09-12T06:02:47;44.53;;;20.80;;
42084;SDS011;27746;52.228;20.890;2023-09-12T06:05:14;40.50;;;20.58;;
42084;SDS011;27746;52.228;20.890;2023-09-12T06:07:41;36.55;;;19.88;;
42084;SDS011;27746;52.228;20.890;2023-09-12T06:10:08;34.97;;;20.67;;
42084;SDS011;27746;52.228;20.890;2023-09-12T06:12:35;31.60;;;19.20;;
42084;SDS011;27746;52.228;20.890;2023-09-12T06:15:03;37.03;;;18.33;;
42084;SDS011;27746;52.228;20.890;2023-09-12T06:17:30;31.35;;;18.23;;
42084;SDS011;27746;52.228;20.890;2023-09-12T06:19:58;38.33;;;19.30;;
42084;SDS011;27746;52.228;20.890;2023-09-12T06:22:25;33.30;;;19.20;;
42084;SDS011;27746;52.228;20.890;2023-09-12T06:24:52;39.15;;;20.60;;
42084;SDS011;27746;52.228;20.890;2023-09-12T06:27:19;38.70;;;20.30;;
42084;SDS011;27746;52.228;20.890;2023-09-12T06:29:46;34.55;;;18.00;;
42084;SDS011;27746;52.228;20.890;2023-09-12T06:32:14;36.90;;;19.42;;
42084;SDS011;27746;52.228;20.890;2023-09-12T06:34:41;26.33;;;17.15;;
42084;SDS011;27746;52.228;20.890;2023-09-12T06:37:10;30.02;;;15.50;;
42084;SDS011;27746;52.228;20.890;2023-09-12T06:39:37;28.23;;;16.70;;
42084;SDS011;27746;52.228;20.890;2023-09-12T06:42:04;28.55;;;17.33;;
42084;SDS011;27746;52.228;20.890;2023-09-12T06:44:31;31.00;;;17.88;;
42084;SDS011;27746;52.228;20.890;2023-09-12T06:46:58;24.00;;;16.10;;
42084;SDS011;27746;52.228;20.890;2023-09-12T06:49:25;32.15;;;16.60;;
42084;SDS011;27746;52.228;20.890;2023-09-12T06:51:52;25.35;;;16.23;;
42084;SDS011;27746;52.228;20.890;2023-09-12T06:54:20;28.80;;;15.60;;
42084;SDS011;27746;52.228;20.890;2023-09-12T06:56:47;27.25;;;15.10;;
42084;SDS011;27746;52.228;20.890;2023-09-12T06:59:14;24.40;;;15.73;;
42084;SDS011;27746;52.228;20.890;2023-09-12T07:01:41;22.25;;;14.00;;
42084;SDS011;27746;52.228;20.890;2023-09-12T07:04:08;21.98;;;14.80;;
42084;SDS011;27746;52.228;20.890;2023-09-12T07:06:35;22.60;;;15.10;;
42084;SDS011;27746;52.228;20.890;2023-09-12T07:09:02;20.63;;;14.20;;
42084;SDS011;27746;52.228;20.890;2023-09-12T07:11:31;19.80;;;12.48;;
42084;SDS011;27746;52.228;20.890;2023-09-12T07:13:58;23.60;;;13.65;;
42084;SDS011;27746;52.228;20.890;2023-09-12T07:16:24;22.65;;;12.18;;
42084;SDS011;27746;52.228;20.890;2023-09-12T07:18:52;20.83;;;12.02;;
42084;SDS011;27746;52.228;20.890;2023-09-12T07:21:19;19.88;;;12.52;;
42084;SDS011;27746;52.228;20.890;2023-09-12T07:23:47;19.77;;;12.18;;
42084;SDS011;27746;52.228;20.890;2023-09-12T07:26:14;19.95;;;12.73;;
42084;SDS011;27746;52.228;20.890;2023-09-12T07:28:43;29.88;;;12.73;;
42084;SDS011;27746;52.228;20.890;2023-09-12T07:31:10;19.77;;;12.00;;
42084;SDS011;27746;52.228;20.890;2023-09-12T07:33:37;23.23;;;12.75;;
42084;SDS011;27746;52.228;20.890;2023-09-12T07:36:04;23.52;;;11.65;;
42084;SDS011;27746;52.228;20.890;2023-09-12T07:38:31;23.58;;;12.65;;
42084;SDS011;27746;52.228;20.890;2023-09-12T07:41:00;30.67;;;13.77;;
42084;SDS011;27746;52.228;20.890;2023-09-12T07:43:28;26.70;;;11.73;;
42084;SDS011;27746;52.228;20.890;2023-09-12T07:45:56;20.67;;;12.13;;
42084;SDS011;27746;52.228;20.890;2023-09-12T07:48:25;23.85;;;11.63;;
42084;SDS011;27746;52.228;20.890;2023-09-12T07:50:53;22.73;;;10.77;;
42084;SDS011;27746;52.228;20.890;2023-09-12T07:53:21;18.83;;;11.68;;
42084;SDS011;27746;52.228;20.890;2023-09-12T07:55:48;27.65;;;12.18;;
42084;SDS011;27746;52.228;20.890;2023-09-12T07:58:16;19.02;;;10.20;;
42084;SDS011;27746;52.228;20.890;2023-09-12T08:00:44;25.90;;;11.38;;
42084;SDS011;27746;52.228;20.890;2023-09-12T08:03:13;20.85;;;10.70;;
42084;SDS011;27746;52.228;20.890;2023-09-12T08:05:40;25.00;;;11.45;;
42084;SDS011;27746;52.228;20.890;2023-09-12T08:08:07;22.63;;;10.40;;
42084;SDS011;27746;52.228;20.890;2023-09-12T08:10:34;19.38;;;12.02;;
42084;SDS011;27746;52.228;20.890;2023-09-12T08:13:01;23.55;;;11.80;;
42084;SDS011;27746;52.228;20.890;2023-09-12T08:15:29;29.10;;;12.68;;
42084;SDS011;27746;52.228;20.890;2023-09-12T08:17:56;17.67;;;10.63;;
42084;SDS011;27746;52.228;20.890;2023-09-12T08:20:25;17.38;;;10.00;;
42084;SDS011;27746;52.228;20.890;2023-09-12T08:22:52;14.05;;;10.35;;
42084;SDS011;27746;52.228;20.890;2023-09-12T08:25:19;15.40;;;10.13;;
42084;SDS011;27746;52.228;20.890;2023-09-12T08:27:46;14.85;;;9.55;;
42084;SDS011;27746;52.228;20.890;2023-09-12T08:30:13;14.27;;;9.60;;
42084;SDS011;27746;52.228;20.890;2023-09-12T08:32:42;16.70;;;10.50;;
42084;SDS011;27746;52.228;20.890;2023-09-12T08:35:10;17.10;;;9.68;;
42084;SDS011;27746;52.228;20.890;2023-09-12T08:37:39;13.38;;;9.30;;
42084;SDS011;27746;52.228;20.890;2023-09-12T08:40:08;18.17;;;9.88;;
42084;SDS011;27746;52.228;20.890;2023-09-12T08:42:38;15.55;;;9.85;;
42084;SDS011;27746;52.228;20.890;2023-09-12T08:45:08;15.27;;;9.60;;
42084;SDS011;27746;52.228;20.890;2023-09-12T08:47:39;19.02;;;9.55;;
42084;SDS011;27746;52.228;20.890;2023-09-12T08:50:08;15.73;;;9.57;;
42084;SDS011;27746;52.228;20.890;2023-09-12T08:52:38;21.15;;;8.95;;
42084;SDS011;27746;52.228;20.890;2023-09-12T08:55:07;19.08;;;9.05;;
42084;SDS011;27746;52.228;20.890;2023-09-12T08:57:35;12.25;;;9.45;;
42084;SDS011;27746;52.228;20.890;2023-09-12T09:00:05;17.73;;;9.15;;
42084;SDS011;27746;52.228;20.890;2023-09-12T09:02:38;14.90;;;8.93;;
42084;SDS011;27746;52.228;20.890;2023-09-12T09:05:06;11.57;;;8.45;;
42084;SDS011;27746;52.228;20.890;2023-09-12T09:07:35;19.02;;;9.82;;
42084;SDS011;27746;52.228;20.890;2023-09-12T09:10:05;15.90;;;9.07;;
42084;SDS011;27746;52.228;20.890;2023-09-12T09:12:33;14.95;;;8.18;;
42084;SDS011;27746;52.228;20.890;2023-09-12T09:17:49;14.57;;;8.63;;
42084;SDS011;27746;52.228;20.890;2023-09-12T09:20:21;24.88;;;9.63;;
42084;SDS011;27746;52.228;20.890;2023-09-12T09:22:58;15.57;;;8.40;;
42084;SDS011;27746;52.228;20.890;2023-09-12T09:25:27;12.02;;;8.32;;
42084;SDS011;27746;52.228;20.890;2023-09-12T09:27:56;12.65;;;8.70;;
42084;SDS011;27746;52.228;20.890;2023-09-12T09:30:39;16.77;;;8.98;;
42084;SDS011;27746;52.228;20.890;2023-09-12T09:33:07;10.93;;;8.20;;
42084;SDS011;27746;52.228;20.890;2023-09-12T09:35:34;11.02;;;8.55;;
42084;SDS011;27746;52.228;20.890;2023-09-12T09:38:02;16.50;;;8.13;;
42084;SDS011;27746;52.228;20.890;2023-09-12T09:40:31;14.15;;;8.70;;
42084;SDS011;27746;52.228;20.890;2023-09-12T09:42:59;12.02;;;8.55;;
42084;SDS011;27746;52.228;20.890;2023-09-12T09:45:26;11.23;;;7.80;;
42084;SDS011;27746;52.228;20.890;2023-09-12T09:47:56;12.07;;;7.93;;
42084;SDS011;27746;52.228;20.890;2023-09-12T09:50:24;11.48;;;7.72;;
42084;SDS011;27746;52.228;20.890;2023-09-12T09:52:53;11.20;;;7.97;;
42084;SDS011;27746;52.228;20.890;2023-09-12T09:55:20;12.25;;;8.40;;
42084;SDS011;27746;52.228;20.890;2023-09-12T09:57:49;15.85;;;8.38;;
42084;SDS011;27746;52.228;20.890;2023-09-12T10:00:19;16.25;;;8.00;;
42084;SDS011;27746;52.228;20.890;2023-09-12T10:02:46;21.75;;;10.65;;
42084;SDS011;27746;52.228;20.890;2023-09-12T10:05:16;14.48;;;8.50;;
42084;SDS011;27746;52.228;20.890;2023-09-12T10:07:44;12.82;;;8.45;;
42084;SDS011;27746;52.228;20.890;2023-09-12T10:10:16;12.15;;;8.02;;
42084;SDS011;27746;52.228;20.890;2023-09-12T10:12:47;9.95;;;8.15;;
42084;SDS011;27746;52.228;20.890;2023-09-12T10:15:17;18.30;;;8.30;;
42084;SDS011;27746;52.228;20.890;2023-09-12T10:17:46;15.45;;;8.23;;
42084;SDS011;27746;52.228;20.890;2023-09-12T10:20:19;15.30;;;8.45;;
42084;SDS011;27746;52.228;20.890;2023-09-12T10:22:50;14.93;;;8.40;;
42084;SDS011;27746;52.228;20.890;2023-09-12T10:25:19;13.77;;;7.68;;
42084;SDS011;27746;52.228;20.890;2023-09-12T10:27:47;11.05;;;8.02;;
42084;SDS011;27746;52.228;20.890;2023-09-12T10:30:15;10.00;;;7.28;;
42084;SDS011;27746;52.228;20.890;2023-09-12T10:32:45;11.45;;;7.78;;
42084;SDS011;27746;52.228;20.890;2023-09-12T10:35:13;10.70;;;8.20;;
42084;SDS011;27746;52.228;20.890;2023-09-12T10:37:41;12.68;;;7.75;;
42084;SDS011;27746;52.228;20.890;2023-09-12T10:40:11;10.80;;;7.40;;
42084;SDS011;27746;52.228;20.890;2023-09-12T10:42:41;11.70;;;7.82;;
42084;SDS011;27746;52.228;20.890;2023-09-12T10:45:09;14.07;;;9.23;;
42084;SDS011;27746;52.228;20.890;2023-09-12T10:47:37;15.90;;;8.05;;
42084;SDS011;27746;52.228;20.890;2023-09-12T10:50:06;11.20;;;7.82;;
42084;SDS011;27746;52.228;20.890;2023-09-12T10:52:34;12.27;;;7.63;;
42084;SDS011;27746;52.228;20.890;2023-09-12T10:55:05;9.13;;;7.65;;
42084;SDS011;27746;52.228;20.890;2023-09-12T10:57:33;13.00;;;7.93;;
42084;SDS011;27746;52.228;20.890;2023-09-12T11:00:10;10.73;;;7.65;;
42084;SDS011;27746;52.228;20.890;2023-09-12T11:02:38;15.40;;;8.45;;
42084;SDS011;27746;52.228;20.890;2023-09-12T11:08:17;17.85;;;8.88;;
42084;SDS011;27746;52.228;20.890;2023-09-12T11:10:44;9.80;;;8.02;;
42084;SDS011;27746;52.228;20.890;2023-09-12T11:13:16;10.07;;;8.00;;
42084;SDS011;27746;52.228;20.890;2023-09-12T11:21:42;12.38;;;7.95;;
42084;SDS011;27746;52.228;20.890;2023-09-12T11:24:09;12.07;;;7.75;;
42084;SDS011;27746;52.228;20.890;2023-09-12T11:26:51;10.18;;;7.97;;
42084;SDS011;27746;52.228;20.890;2023-09-12T11:29:26;12.88;;;7.90;;
42084;SDS011;27746;52.228;20.890;2023-09-12T11:31:54;19.05;;;8.65;;
42084;SDS011;27746;52.228;20.890;2023-09-12T11:34:27;10.40;;;7.90;;
42084;SDS011;27746;52.228;20.890;2023-09-12T11:36:56;14.00;;;8.68;;
42084;SDS011;27746;52.228;20.890;2023-09-12T11:39:29;11.25;;;7.85;;
42084;SDS011;27746;52.228;20.890;2023-09-12T11:41:57;13.57;;;7.40;;
42084;SDS011;27746;52.228;20.890;2023-09-12T11:44:32;10.30;;;7.38;;
42084;SDS011;27746;52.228;20.890;2023-09-12T11:46:59;10.40;;;7.50;;
42084;SDS011;27746;52.228;20.890;2023-09-12T11:49:35;11.30;;;7.75;;
42084;SDS011;27746;52.228;20.890;2023-09-12T11:52:07;10.23;;;7.32;;
42084;SDS011;27746;52.228;20.890;2023-09-12T11:54:35;10.90;;;7.75;;
42084;SDS011;27746;52.228;20.890;2023-09-12T11:57:03;9.52;;;7.50;;
42084;SDS011;27746;52.228;20.890;2023-09-12T11:59:30;10.48;;;7.93;;
42084;SDS011;27746;52.228;20.890;2023-09-12T12:02:00;9.93;;;7.35;;
42084;SDS011;27746;52.228;20.890;2023-09-12T12:04:31;11.02;;;7.80;;
42084;SDS011;27746;52.228;20.890;2023-09-12T12:06:59;9.75;;;7.38;;
42084;SDS011;27746;52.228;20.890;2023-09-12T12:09:28;12.45;;;7.50;;
42084;SDS011;27746;52.228;20.890;2023-09-12T12:11:55;12.10;;;6.95;;
42084;SDS011;27746;52.228;20.890;2023-09-12T12:14:26;11.48;;;7.68;;
42084;SDS011;27746;52.228;20.890;2023-09-12T12:16:53;10.30;;;7.60;;
42084;SDS011;27746;52.228;20.890;2023-09-12T12:19:21;11.40;;;7.47;;
42084;SDS011;27746;52.228;20.890;2023-09-12T12:21:48;10.77;;;7.32;;
42084;SDS011;27746;52.228;20.890;2023-09-12T12:24:15;11.85;;;8.25;;
42084;SDS011;27746;52.228;20.890;2023-09-12T12:26:44;9.20;;;7.65;;
42084;SDS011;27746;52.228;20.890;2023-09-12T12:29:11;10.15;;;7.55;;
42084;SDS011;27746;52.228;20.890;2023-09-12T12:31:39;9.57;;;7.70;;
42084;SDS011;27746;52.228;20.890;2023-09-12T12:34:06;9.93;;;7.93;;
42084;SDS011;27746;52.228;20.890;2023-09-12T12:36:33;10.30;;;8.02;;
42084;SDS011;27746;52.228;20.890;2023-09-12T12:39:10;12.60;;;7.88;;
42084;SDS011;27746;52.228;20.890;2023-09-12T12:41:37;13.50;;;7.03;;
42084;SDS011;27746;52.228;20.890;2023-09-12T12:44:05;10.52;;;8.00;;
42084;SDS011;27746;52.228;20.890;2023-09-12T12:46:32;11.55;;;8.40;;
42084;SDS011;27746;52.228;20.890;2023-09-12T12:48:59;12.27;;;8.13;;
42084;SDS011;27746;52.228;20.890;2023-09-12T12:51:26;13.23;;;8.05;;
42084;SDS011;27746;52.228;20.890;2023-09-12T12:54:02;9.80;;;7.68;;
42084;SDS011;27746;52.228;20.890;2023-09-12T12:56:30;9.70;;;7.72;;
42084;SDS011;27746;52.228;20.890;2023-09-12T12:58:58;14.23;;;7.57;;
42084;SDS011;27746;52.228;20.890;2023-09-12T13:01:29;11.63;;;7.53;;
42084;SDS011;27746;52.228;20.890;2023-09-12T13:03:55;11.20;;;7.47;;
42084;SDS011;27746;52.228;20.890;2023-09-12T13:06:22;8.93;;;7.18;;
42084;SDS011;27746;52.228;20.890;2023-09-12T13:08:51;9.32;;;7.88;;
42084;SDS011;27746;52.228;20.890;2023-09-12T13:11:18;10.82;;;6.93;;
42084;SDS011;27746;52.228;20.890;2023-09-12T13:13:46;9.88;;;7.57;;
42084;SDS011;27746;52.228;20.890;2023-09-12T13:16:14;10.63;;;7.97;;
42084;SDS011;27746;52.228;20.890;2023-09-12T13:18:43;11.13;;;7.82;;
42084;SDS011;27746;52.228;20.890;2023-09-12T13:21:10;11.88;;;8.05;;
42084;SDS011;27746;52.228;20.890;2023-09-12T13:23:37;12.23;;;9.77;;
42084;SDS011;27746;52.228;20.890;2023-09-12T13:26:06;12.38;;;8.57;;
42084;SDS011;27746;52.228;20.890;2023-09-12T13:28:33;12.50;;;8.00;;
42084;SDS011;27746;52.228;20.890;2023-09-12T13:31:00;8.57;;;7.38;;
42084;SDS011;27746;52.228;20.890;2023-09-12T13:33:28;10.68;;;8.05;;
42084;SDS011;27746;52.228;20.890;2023-09-12T13:35:56;11.48;;;7.90;;
42084;SDS011;27746;52.228;20.890;2023-09-12T13:38:23;12.70;;;8.57;;
42084;SDS011;27746;52.228;20.890;2023-09-12T13:40:50;10.45;;;7.93;;
42084;SDS011;27746;52.228;20.890;2023-09-12T13:43:17;12.60;;;8.55;;
42084;SDS011;27746;52.228;20.890;2023-09-12T13:45:45;12.43;;;7.72;;
42084;SDS011;27746;52.228;20.890;2023-09-12T13:48:12;11.23;;;7.47;;
42084;SDS011;27746;52.228;20.890;2023-09-12T13:50:39;14.90;;;7.93;;
42084;SDS011;27746;52.228;20.890;2023-09-12T13:53:09;10.35;;;7.30;;
42084;SDS011;27746;52.228;20.890;2023-09-12T13:55:36;10.38;;;7.82;;
42084;SDS011;27746;52.228;20.890;2023-09-12T13:58:04;13.95;;;8.10;;
42084;SDS011;27746;52.228;20.890;2023-09-12T14:00:32;11.82;;;8.27;;
42084;SDS011;27746;52.228;20.890;2023-09-12T14:02:59;16.25;;;8.57;;
42084;SDS011;27746;52.228;20.890;2023-09-12T14:05:26;11.05;;;7.80;;
42084;SDS011;27746;52.228;20.890;2023-09-12T14:07:53;11.40;;;7.78;;
42084;SDS011;27746;52.228;20.890;2023-09-12T14:10:22;14.65;;;9.57;;
42084;SDS011;27746;52.228;20.890;2023-09-12T14:12:49;9.10;;;8.02;;
42084;SDS011;27746;52.228;20.890;2023-09-12T14:15:16;10.57;;;8.55;;
42084;SDS011;27746;52.228;20.890;2023-09-12T14:17:44;11.48;;;8.68;;
42084;SDS011;27746;52.228;20.890;2023-09-12T14:20:11;13.25;;;8.52;;
42084;SDS011;27746;52.228;20.890;2023-09-12T14:22:40;13.88;;;8.50;;
42084;SDS011;27746;52.228;20.890;2023-09-12T14:25:08;12.13;;;8.38;;
42084;SDS011;27746;52.228;20.890;2023-09-12T14:27:41;11.38;;;8.57;;
42084;SDS011;27746;52.228;20.890;2023-09-12T14:30:08;15.30;;;9.13;;